Terminal Aerodrome Forecast
Issued by NWS

Home | Current Version | Previous Version | Text Only | Print | Product List | Glossary On
Versions: 1 2 3 4 5 6 7 8 9 10 11 12 13 14 15 16 17 18 19 20 21 22 23 24 25 26 27
000
FTUS41 KBOX 221408 AAA
TAFHYA
TAF AMD
KHYA 221408Z 2214/2312 02014G23KT 1 1/2SM BR OVC003
     FM221530 03012G25KT 2SM -SHRA BR OVC003
     FM222000 04011KT 6SM -SHRA OVC008
     FM222300 05013KT 3SM SHRA BR OVC008
     FM230200 07012KT 3SM SHRA BR OVC006=

USA.gov is the U.S. government's official web portal to all federal, state and local government web resources and services.